Pagrindinis puslapis
METAR-TAF:

METAR-TAF

Oro uostai :

Horn Island, Australija

platuma: 10-35-11S, ilguma: 142-07-24E, Aukštis: 13 m

Dabartinis oras

Ataskaita buvo paskelbta 34 minutes, ne 10:00 UTC
Vėjas 10 kt iš Pietų/Pietryčių
Temperatūra 26°C
Drėgmė 79%
Slėgis 1013 hPa
Matomumas 10 km arba daugiau

METAR: YHID 221000Z AUTO 15010KT 9999 // NCD 26/22 Q1013 RF00.0/000.0

Laikas: 20:34 (10:34 UTC)

Prognozė

Ataskaita buvo paskelbta 5 valandos ir 5 minutes, ne 05:29 UTC
Prognozė galioja nuo 22 metu 06 UTC su 23 metu 06 UTC
Vėjas 16 kt iš Rytų/Pietryčių
Matomumas 10 km arba daugiau
Išsisklaidę debesys ne aukštis 3000 ft
Tapsmas
nuo 22 metu 08 UTC su 22 metu 10 UTC
Vėjas 12 kt iš Pietryčių
Matomumas 10 km arba daugiau
Išsisklaidę debesys ne aukštis 1500 ft
Nuo 23 metu 0100 UTC
Vėjas 15 kt iš Rytų/Pietryčių
Matomumas 10 km arba daugiau
Išsisklaidę debesys ne aukštis 3500 ft

TAF: YHID 220529Z 2206/2306 12016KT 9999 SCT030 BECMG 2208/2210 14012KT 9999 SCT015 FM230100 11015KT 9999 SCT035

Orai ataskaitas ir orų prognozės (METAR, TAF).

turimą stotys yra geltonos ir raudonos taškus žemėlapyje.

Perkelti pele per norėdami pamatyti stoties vardą.

Tada spustelėkite, norėdami matyti oro stebėjimo ir prognozės.

Norėdami pakeisti žemėlapį: spustelėkite ant žalios mygtukų su juodo kryžiaus žemyn,; žalią mygtuką su brūkšneliu, jei norite nutolinti; arba žalių rodyklių gretimoms žemėlapius.


METAR-TAF: